sensor_id;sensor_type;location;lat;lon;timestamp;P1;durP1;ratioP1;P2;durP2;ratioP2
30647;SDS011;17683;53.360;9.736;2023-04-25T00:00:52;8.63;;;4.50;;
30647;SDS011;17683;53.360;9.736;2023-04-25T00:03:18;6.68;;;4.68;;
30647;SDS011;17683;53.360;9.736;2023-04-25T00:05:44;7.72;;;4.63;;
30647;SDS011;17683;53.360;9.736;2023-04-25T00:08:10;5.50;;;3.70;;
30647;SDS011;17683;53.360;9.736;2023-04-25T00:10:36;8.27;;;4.50;;
30647;SDS011;17683;53.360;9.736;2023-04-25T00:13:02;8.40;;;4.38;;
30647;SDS011;17683;53.360;9.736;2023-04-25T00:15:27;5.90;;;3.72;;
30647;SDS011;17683;53.360;9.736;2023-04-25T00:17:55;10.80;;;3.60;;
30647;SDS011;17683;53.360;9.736;2023-04-25T00:20:22;8.02;;;3.33;;
30647;SDS011;17683;53.360;9.736;2023-04-25T00:22:48;9.38;;;3.75;;
30647;SDS011;17683;53.360;9.736;2023-04-25T00:25:14;16.23;;;4.32;;
30647;SDS011;17683;53.360;9.736;2023-04-25T00:27:40;18.55;;;3.88;;
30647;SDS011;17683;53.360;9.736;2023-04-25T00:30:07;14.70;;;3.35;;
30647;SDS011;17683;53.360;9.736;2023-04-25T00:32:33;8.02;;;3.42;;
30647;SDS011;17683;53.360;9.736;2023-04-25T00:34:59;20.88;;;5.65;;
30647;SDS011;17683;53.360;9.736;2023-04-25T00:37:24;16.63;;;4.47;;
30647;SDS011;17683;53.360;9.736;2023-04-25T00:39:50;14.65;;;4.25;;
30647;SDS011;17683;53.360;9.736;2023-04-25T00:42:18;12.63;;;4.00;;
30647;SDS011;17683;53.360;9.736;2023-04-25T00:44:44;13.10;;;4.45;;
30647;SDS011;17683;53.360;9.736;2023-04-25T00:47:10;15.77;;;4.57;;
30647;SDS011;17683;53.360;9.736;2023-04-25T00:49:36;19.10;;;5.13;;
30647;SDS011;17683;53.360;9.736;2023-04-25T00:52:02;16.15;;;3.78;;
30647;SDS011;17683;53.360;9.736;2023-04-25T00:54:27;13.80;;;4.00;;
30647;SDS011;17683;53.360;9.736;2023-04-25T00:56:55;26.45;;;5.10;;
30647;SDS011;17683;53.360;9.736;2023-04-25T00:59:20;17.55;;;4.38;;
30647;SDS011;17683;53.360;9.736;2023-04-25T01:01:46;18.45;;;4.30;;
30647;SDS011;17683;53.360;9.736;2023-04-25T01:04:12;20.73;;;5.10;;
30647;SDS011;17683;53.360;9.736;2023-04-25T01:06:38;28.38;;;5.45;;
30647;SDS011;17683;53.360;9.736;2023-04-25T01:09:05;24.90;;;5.82;;
30647;SDS011;17683;53.360;9.736;2023-04-25T01:11:32;23.90;;;5.95;;
30647;SDS011;17683;53.360;9.736;2023-04-25T01:13:57;36.17;;;6.80;;
30647;SDS011;17683;53.360;9.736;2023-04-25T01:16:23;20.40;;;4.57;;
30647;SDS011;17683;53.360;9.736;2023-04-25T01:18:49;24.02;;;4.65;;
30647;SDS011;17683;53.360;9.736;2023-04-25T01:21:16;25.48;;;4.93;;
30647;SDS011;17683;53.360;9.736;2023-04-25T01:23:42;30.45;;;6.28;;
30647;SDS011;17683;53.360;9.736;2023-04-25T01:26:08;25.45;;;5.18;;
30647;SDS011;17683;53.360;9.736;2023-04-25T01:28:35;24.63;;;5.25;;
30647;SDS011;17683;53.360;9.736;2023-04-25T01:31:02;27.95;;;6.30;;
30647;SDS011;17683;53.360;9.736;2023-04-25T01:33:28;27.65;;;5.80;;
30647;SDS011;17683;53.360;9.736;2023-04-25T01:35:54;26.13;;;5.72;;
30647;SDS011;17683;53.360;9.736;2023-04-25T01:38:20;24.35;;;5.03;;
30647;SDS011;17683;53.360;9.736;2023-04-25T01:40:46;33.10;;;7.03;;
30647;SDS011;17683;53.360;9.736;2023-04-25T01:43:15;22.13;;;6.88;;
30647;SDS011;17683;53.360;9.736;2023-04-25T01:45:41;25.10;;;6.72;;
30647;SDS011;17683;53.360;9.736;2023-04-25T01:48:11;24.67;;;6.13;;
30647;SDS011;17683;53.360;9.736;2023-04-25T01:50:39;22.42;;;5.53;;
30647;SDS011;17683;53.360;9.736;2023-04-25T01:53:05;18.80;;;4.95;;
30647;SDS011;17683;53.360;9.736;2023-04-25T01:55:31;18.92;;;5.22;;
30647;SDS011;17683;53.360;9.736;2023-04-25T01:57:56;24.70;;;6.00;;
30647;SDS011;17683;53.360;9.736;2023-04-25T02:00:23;24.20;;;5.10;;
30647;SDS011;17683;53.360;9.736;2023-04-25T02:02:49;27.83;;;6.18;;
30647;SDS011;17683;53.360;9.736;2023-04-25T02:05:16;27.73;;;5.18;;
30647;SDS011;17683;53.360;9.736;2023-04-25T02:07:42;31.90;;;6.22;;
30647;SDS011;17683;53.360;9.736;2023-04-25T02:10:07;24.55;;;5.82;;
30647;SDS011;17683;53.360;9.736;2023-04-25T02:12:34;26.52;;;6.25;;
30647;SDS011;17683;53.360;9.736;2023-04-25T02:15:00;30.67;;;5.75;;
30647;SDS011;17683;53.360;9.736;2023-04-25T02:17:26;34.60;;;6.75;;
30647;SDS011;17683;53.360;9.736;2023-04-25T02:19:52;20.27;;;4.88;;
30647;SDS011;17683;53.360;9.736;2023-04-25T02:22:18;22.90;;;4.57;;
30647;SDS011;17683;53.360;9.736;2023-04-25T02:24:44;16.52;;;4.25;;
30647;SDS011;17683;53.360;9.736;2023-04-25T02:27:11;26.63;;;6.22;;
30647;SDS011;17683;53.360;9.736;2023-04-25T02:29:36;23.60;;;5.00;;
30647;SDS011;17683;53.360;9.736;2023-04-25T02:32:02;39.83;;;5.55;;
30647;SDS011;17683;53.360;9.736;2023-04-25T02:34:28;28.58;;;5.68;;
30647;SDS011;17683;53.360;9.736;2023-04-25T02:36:54;25.90;;;6.45;;
30647;SDS011;17683;53.360;9.736;2023-04-25T02:39:20;22.90;;;5.53;;
30647;SDS011;17683;53.360;9.736;2023-04-25T02:41:47;22.75;;;5.30;;
30647;SDS011;17683;53.360;9.736;2023-04-25T02:44:12;20.58;;;5.88;;
30647;SDS011;17683;53.360;9.736;2023-04-25T02:46:38;27.48;;;5.70;;
30647;SDS011;17683;53.360;9.736;2023-04-25T02:49:04;29.40;;;5.78;;
30647;SDS011;17683;53.360;9.736;2023-04-25T02:51:30;27.95;;;5.18;;
30647;SDS011;17683;53.360;9.736;2023-04-25T02:53:56;22.63;;;5.13;;
30647;SDS011;17683;53.360;9.736;2023-04-25T02:56:21;24.33;;;5.78;;
30647;SDS011;17683;53.360;9.736;2023-04-25T02:58:47;30.92;;;5.65;;
30647;SDS011;17683;53.360;9.736;2023-04-25T03:01:12;23.77;;;5.55;;
30647;SDS011;17683;53.360;9.736;2023-04-25T03:03:38;22.95;;;4.55;;
30647;SDS011;17683;53.360;9.736;2023-04-25T03:06:04;24.52;;;4.90;;
30647;SDS011;17683;53.360;9.736;2023-04-25T03:08:30;22.52;;;5.88;;
30647;SDS011;17683;53.360;9.736;2023-04-25T03:10:57;32.78;;;5.57;;
30647;SDS011;17683;53.360;9.736;2023-04-25T03:13:23;17.67;;;4.95;;
30647;SDS011;17683;53.360;9.736;2023-04-25T03:15:49;21.05;;;4.85;;
30647;SDS011;17683;53.360;9.736;2023-04-25T03:18:15;18.33;;;5.07;;
30647;SDS011;17683;53.360;9.736;2023-04-25T03:20:41;25.80;;;5.72;;
30647;SDS011;17683;53.360;9.736;2023-04-25T03:23:07;19.77;;;5.22;;
30647;SDS011;17683;53.360;9.736;2023-04-25T03:25:32;27.58;;;6.22;;
30647;SDS011;17683;53.360;9.736;2023-04-25T03:27:58;21.50;;;5.18;;
30647;SDS011;17683;53.360;9.736;2023-04-25T03:30:24;28.48;;;5.20;;
30647;SDS011;17683;53.360;9.736;2023-04-25T03:32:50;21.52;;;4.80;;
30647;SDS011;17683;53.360;9.736;2023-04-25T03:35:15;20.83;;;4.50;;
30647;SDS011;17683;53.360;9.736;2023-04-25T03:37:41;18.60;;;4.65;;
30647;SDS011;17683;53.360;9.736;2023-04-25T03:40:10;25.42;;;5.72;;
30647;SDS011;17683;53.360;9.736;2023-04-25T03:42:36;21.98;;;4.78;;
30647;SDS011;17683;53.360;9.736;2023-04-25T03:45:02;21.30;;;6.32;;
30647;SDS011;17683;53.360;9.736;2023-04-25T03:47:28;20.48;;;4.63;;
30647;SDS011;17683;53.360;9.736;2023-04-25T03:49:54;19.92;;;5.70;;
30647;SDS011;17683;53.360;9.736;2023-04-25T03:52:20;18.65;;;4.80;;
30647;SDS011;17683;53.360;9.736;2023-04-25T03:54:45;12.75;;;4.25;;
30647;SDS011;17683;53.360;9.736;2023-04-25T03:57:11;16.67;;;4.70;;
30647;SDS011;17683;53.360;9.736;2023-04-25T03:59:37;14.02;;;4.60;;
30647;SDS011;17683;53.360;9.736;2023-04-25T04:02:03;15.02;;;4.57;;
30647;SDS011;17683;53.360;9.736;2023-04-25T04:04:28;29.77;;;5.25;;
30647;SDS011;17683;53.360;9.736;2023-04-25T04:06:55;17.40;;;4.63;;
30647;SDS011;17683;53.360;9.736;2023-04-25T04:09:20;23.13;;;6.18;;
30647;SDS011;17683;53.360;9.736;2023-04-25T04:11:46;24.17;;;4.57;;
30647;SDS011;17683;53.360;9.736;2023-04-25T04:14:12;16.75;;;4.53;;
30647;SDS011;17683;53.360;9.736;2023-04-25T04:16:38;14.15;;;4.30;;
30647;SDS011;17683;53.360;9.736;2023-04-25T04:19:03;19.85;;;4.82;;
30647;SDS011;17683;53.360;9.736;2023-04-25T04:21:29;19.63;;;5.50;;
30647;SDS011;17683;53.360;9.736;2023-04-25T04:23:55;16.50;;;4.30;;
30647;SDS011;17683;53.360;9.736;2023-04-25T04:26:22;15.68;;;4.57;;
30647;SDS011;17683;53.360;9.736;2023-04-25T04:28:48;26.17;;;5.10;;
30647;SDS011;17683;53.360;9.736;2023-04-25T04:31:19;19.48;;;4.68;;
30647;SDS011;17683;53.360;9.736;2023-04-25T04:33:46;23.08;;;5.05;;
30647;SDS011;17683;53.360;9.736;2023-04-25T04:36:12;11.95;;;3.95;;
30647;SDS011;17683;53.360;9.736;2023-04-25T04:38:39;16.50;;;5.20;;
30647;SDS011;17683;53.360;9.736;2023-04-25T04:41:06;21.80;;;4.22;;
30647;SDS011;17683;53.360;9.736;2023-04-25T04:43:31;18.90;;;4.40;;
30647;SDS011;17683;53.360;9.736;2023-04-25T04:45:58;21.45;;;5.45;;
30647;SDS011;17683;53.360;9.736;2023-04-25T04:48:28;21.60;;;4.13;;
30647;SDS011;17683;53.360;9.736;2023-04-25T04:50:57;17.33;;;3.72;;
30647;SDS011;17683;53.360;9.736;2023-04-25T04:53:23;14.65;;;3.83;;
30647;SDS011;17683;53.360;9.736;2023-04-25T04:55:49;15.20;;;4.30;;
30647;SDS011;17683;53.360;9.736;2023-04-25T04:58:15;20.63;;;4.60;;
30647;SDS011;17683;53.360;9.736;2023-04-25T05:00:41;25.08;;;5.10;;
30647;SDS011;17683;53.360;9.736;2023-04-25T05:03:06;19.70;;;4.28;;
30647;SDS011;17683;53.360;9.736;2023-04-25T05:05:32;21.92;;;4.18;;
30647;SDS011;17683;53.360;9.736;2023-04-25T05:07:58;17.13;;;4.68;;
30647;SDS011;17683;53.360;9.736;2023-04-25T05:10:24;25.55;;;4.63;;
30647;SDS011;17683;53.360;9.736;2023-04-25T05:12:50;23.63;;;5.07;;
30647;SDS011;17683;53.360;9.736;2023-04-25T05:15:16;15.60;;;3.42;;
30647;SDS011;17683;53.360;9.736;2023-04-25T05:17:41;15.73;;;3.85;;
30647;SDS011;17683;53.360;9.736;2023-04-25T05:20:07;27.70;;;4.82;;
30647;SDS011;17683;53.360;9.736;2023-04-25T05:22:36;17.67;;;4.85;;
30647;SDS011;17683;53.360;9.736;2023-04-25T05:25:02;18.00;;;4.25;;
30647;SDS011;17683;53.360;9.736;2023-04-25T05:27:28;20.15;;;3.97;;
30647;SDS011;17683;53.360;9.736;2023-04-25T05:29:54;18.42;;;4.18;;
30647;SDS011;17683;53.360;9.736;2023-04-25T05:32:19;15.25;;;4.13;;
30647;SDS011;17683;53.360;9.736;2023-04-25T05:34:45;13.23;;;3.70;;
30647;SDS011;17683;53.360;9.736;2023-04-25T05:37:11;24.58;;;4.68;;
30647;SDS011;17683;53.360;9.736;2023-04-25T05:39:36;12.25;;;3.65;;
30647;SDS011;17683;53.360;9.736;2023-04-25T05:42:02;13.32;;;3.22;;
30647;SDS011;17683;53.360;9.736;2023-04-25T05:44:29;16.95;;;3.47;;
30647;SDS011;17683;53.360;9.736;2023-04-25T05:46:55;16.63;;;4.32;;
30647;SDS011;17683;53.360;9.736;2023-04-25T05:49:21;22.83;;;4.30;;
30647;SDS011;17683;53.360;9.736;2023-04-25T05:51:47;17.80;;;4.32;;
30647;SDS011;17683;53.360;9.736;2023-04-25T05:54:12;18.33;;;4.68;;
30647;SDS011;17683;53.360;9.736;2023-04-25T05:56:38;15.13;;;3.63;;
30647;SDS011;17683;53.360;9.736;2023-04-25T05:59:04;11.07;;;3.42;;
30647;SDS011;17683;53.360;9.736;2023-04-25T06:01:30;13.88;;;3.45;;
30647;SDS011;17683;53.360;9.736;2023-04-25T06:03:56;20.75;;;3.38;;
30647;SDS011;17683;53.360;9.736;2023-04-25T06:06:21;13.88;;;3.80;;
30647;SDS011;17683;53.360;9.736;2023-04-25T06:08:48;17.48;;;4.20;;
30647;SDS011;17683;53.360;9.736;2023-04-25T06:11:13;17.20;;;3.15;;
30647;SDS011;17683;53.360;9.736;2023-04-25T06:13:39;18.55;;;3.88;;
30647;SDS011;17683;53.360;9.736;2023-04-25T06:16:05;20.77;;;4.55;;
30647;SDS011;17683;53.360;9.736;2023-04-25T06:18:34;16.92;;;3.92;;
30647;SDS011;17683;53.360;9.736;2023-04-25T06:20:59;20.65;;;3.88;;
30647;SDS011;17683;53.360;9.736;2023-04-25T06:23:25;17.85;;;4.55;;
30647;SDS011;17683;53.360;9.736;2023-04-25T06:25:51;13.45;;;3.38;;
30647;SDS011;17683;53.360;9.736;2023-04-25T06:28:17;16.80;;;4.00;;
30647;SDS011;17683;53.360;9.736;2023-04-25T06:30:42;18.25;;;4.18;;
30647;SDS011;17683;53.360;9.736;2023-04-25T06:33:08;21.50;;;4.53;;
30647;SDS011;17683;53.360;9.736;2023-04-25T06:35:34;17.58;;;4.30;;
30647;SDS011;17683;53.360;9.736;2023-04-25T06:38:00;14.88;;;3.60;;
30647;SDS011;17683;53.360;9.736;2023-04-25T06:40:26;20.10;;;3.58;;
30647;SDS011;17683;53.360;9.736;2023-04-25T06:42:51;22.58;;;4.22;;
30647;SDS011;17683;53.360;9.736;2023-04-25T06:45:17;11.82;;;3.70;;
30647;SDS011;17683;53.360;9.736;2023-04-25T06:47:43;15.20;;;3.75;;
30647;SDS011;17683;53.360;9.736;2023-04-25T06:50:09;17.23;;;3.13;;
30647;SDS011;17683;53.360;9.736;2023-04-25T06:52:35;12.98;;;3.10;;
30647;SDS011;17683;53.360;9.736;2023-04-25T06:55:01;16.17;;;3.70;;
30647;SDS011;17683;53.360;9.736;2023-04-25T06:57:27;16.90;;;3.58;;
30647;SDS011;17683;53.360;9.736;2023-04-25T06:59:53;13.48;;;2.85;;
30647;SDS011;17683;53.360;9.736;2023-04-25T07:02:19;12.57;;;3.30;;
30647;SDS011;17683;53.360;9.736;2023-04-25T07:04:46;15.48;;;3.15;;
30647;SDS011;17683;53.360;9.736;2023-04-25T07:07:12;13.55;;;4.32;;
30647;SDS011;17683;53.360;9.736;2023-04-25T07:09:37;12.52;;;2.80;;
30647;SDS011;17683;53.360;9.736;2023-04-25T07:12:03;11.82;;;3.10;;
30647;SDS011;17683;53.360;9.736;2023-04-25T07:14:29;17.67;;;4.07;;
30647;SDS011;17683;53.360;9.736;2023-04-25T07:16:55;12.32;;;3.28;;
30647;SDS011;17683;53.360;9.736;2023-04-25T07:19:22;9.73;;;2.92;;
30647;SDS011;17683;53.360;9.736;2023-04-25T07:21:51;15.75;;;3.40;;
30647;SDS011;17683;53.360;9.736;2023-04-25T07:24:17;17.23;;;3.75;;
30647;SDS011;17683;53.360;9.736;2023-04-25T07:26:43;13.15;;;3.42;;
30647;SDS011;17683;53.360;9.736;2023-04-25T07:29:09;12.63;;;3.10;;
30647;SDS011;17683;53.360;9.736;2023-04-25T07:31:34;9.52;;;3.00;;
30647;SDS011;17683;53.360;9.736;2023-04-25T07:34:00;13.90;;;3.15;;
30647;SDS011;17683;53.360;9.736;2023-04-25T07:36:26;7.00;;;2.80;;
30647;SDS011;17683;53.360;9.736;2023-04-25T07:38:52;10.10;;;2.80;;
30647;SDS011;17683;53.360;9.736;2023-04-25T07:41:17;9.50;;;2.30;;
30647;SDS011;17683;53.360;9.736;2023-04-25T07:43:43;14.52;;;3.63;;
30647;SDS011;17683;53.360;9.736;2023-04-25T07:46:10;9.00;;;2.47;;
30647;SDS011;17683;53.360;9.736;2023-04-25T07:48:35;12.57;;;2.85;;
30647;SDS011;17683;53.360;9.736;2023-04-25T07:51:01;12.43;;;3.08;;
30647;SDS011;17683;53.360;9.736;2023-04-25T07:53:29;11.63;;;3.03;;
30647;SDS011;17683;53.360;9.736;2023-04-25T07:55:55;10.27;;;2.33;;
30647;SDS011;17683;53.360;9.736;2023-04-25T07:58:21;8.77;;;2.30;;
30647;SDS011;17683;53.360;9.736;2023-04-25T08:00:47;8.43;;;2.00;;
30647;SDS011;17683;53.360;9.736;2023-04-25T08:03:13;12.63;;;2.70;;
30647;SDS011;17683;53.360;9.736;2023-04-25T08:05:39;6.82;;;2.30;;
30647;SDS011;17683;53.360;9.736;2023-04-25T08:08:04;17.02;;;2.58;;
30647;SDS011;17683;53.360;9.736;2023-04-25T08:10:32;7.57;;;2.15;;
30647;SDS011;17683;53.360;9.736;2023-04-25T08:12:58;6.72;;;1.98;;
30647;SDS011;17683;53.360;9.736;2023-04-25T08:15:24;6.20;;;2.17;;
30647;SDS011;17683;53.360;9.736;2023-04-25T08:17:50;13.93;;;2.80;;
30647;SDS011;17683;53.360;9.736;2023-04-25T08:20:16;9.13;;;2.55;;
30647;SDS011;17683;53.360;9.736;2023-04-25T08:22:42;10.43;;;2.92;;
30647;SDS011;17683;53.360;9.736;2023-04-25T08:25:08;13.50;;;2.83;;
30647;SDS011;17683;53.360;9.736;2023-04-25T08:27:33;12.68;;;2.45;;
30647;SDS011;17683;53.360;9.736;2023-04-25T08:30:00;11.77;;;2.65;;
30647;SDS011;17683;53.360;9.736;2023-04-25T08:32:26;8.48;;;2.22;;
30647;SDS011;17683;53.360;9.736;2023-04-25T08:34:52;10.80;;;2.25;;
30647;SDS011;17683;53.360;9.736;2023-04-25T08:37:20;8.80;;;1.83;;
30647;SDS011;17683;53.360;9.736;2023-04-25T08:39:46;5.30;;;1.50;;
30647;SDS011;17683;53.360;9.736;2023-04-25T08:42:13;5.80;;;1.73;;
30647;SDS011;17683;53.360;9.736;2023-04-25T08:44:40;6.40;;;1.50;;
30647;SDS011;17683;53.360;9.736;2023-04-25T08:47:06;6.82;;;1.63;;
30647;SDS011;17683;53.360;9.736;2023-04-25T08:49:32;8.68;;;1.90;;
30647;SDS011;17683;53.360;9.736;2023-04-25T08:52:02;3.70;;;1.50;;
30647;SDS011;17683;53.360;9.736;2023-04-25T08:54:31;6.20;;;2.03;;
30647;SDS011;17683;53.360;9.736;2023-04-25T08:56:57;9.82;;;1.85;;
30647;SDS011;17683;53.360;9.736;2023-04-25T08:59:27;10.98;;;2.20;;
30647;SDS011;17683;53.360;9.736;2023-04-25T09:01:53;10.20;;;1.95;;
30647;SDS011;17683;53.360;9.736;2023-04-25T09:04:19;11.85;;;2.45;;
30647;SDS011;17683;53.360;9.736;2023-04-25T09:06:45;13.00;;;3.00;;
30647;SDS011;17683;53.360;9.736;2023-04-25T09:09:15;13.27;;;2.75;;
30647;SDS011;17683;53.360;9.736;2023-04-25T09:11:41;15.52;;;2.92;;
30647;SDS011;17683;53.360;9.736;2023-04-25T09:14:11;10.73;;;2.67;;
30647;SDS011;17683;53.360;9.736;2023-04-25T09:16:56;14.52;;;2.35;;
30647;SDS011;17683;53.360;9.736;2023-04-25T09:19:34;10.52;;;2.47;;
30647;SDS011;17683;53.360;9.736;2023-04-25T09:22:01;6.53;;;1.30;;
30647;SDS011;17683;53.360;9.736;2023-04-25T09:24:39;9.50;;;1.90;;
30647;SDS011;17683;53.360;9.736;2023-04-25T09:27:07;3.50;;;1.20;;
30647;SDS011;17683;53.360;9.736;2023-04-25T09:29:35;5.07;;;1.25;;
30647;SDS011;17683;53.360;9.736;2023-04-25T09:34:41;7.53;;;1.80;;
30647;SDS011;17683;53.360;9.736;2023-04-25T09:37:09;6.75;;;1.80;;
30647;SDS011;17683;53.360;9.736;2023-04-25T09:39:38;7.80;;;2.53;;
30647;SDS011;17683;53.360;9.736;2023-04-25T09:42:04;8.20;;;2.00;;
30647;SDS011;17683;53.360;9.736;2023-04-25T09:44:31;7.72;;;1.95;;
30647;SDS011;17683;53.360;9.736;2023-04-25T09:46:57;6.88;;;2.22;;
30647;SDS011;17683;53.360;9.736;2023-04-25T09:49:25;10.18;;;2.40;;
30647;SDS011;17683;53.360;9.736;2023-04-25T09:51:56;10.02;;;1.90;;
30647;SDS011;17683;53.360;9.736;2023-04-25T09:54:23;5.95;;;1.85;;
30647;SDS011;17683;53.360;9.736;2023-04-25T09:56:51;12.48;;;2.20;;
30647;SDS011;17683;53.360;9.736;2023-04-25T09:59:21;11.93;;;2.03;;
30647;SDS011;17683;53.360;9.736;2023-04-25T10:01:48;8.23;;;1.70;;
30647;SDS011;17683;53.360;9.736;2023-04-25T10:04:23;10.25;;;2.05;;
30647;SDS011;17683;53.360;9.736;2023-04-25T10:06:51;12.60;;;1.77;;
30647;SDS011;17683;53.360;9.736;2023-04-25T10:09:21;10.55;;;2.03;;
30647;SDS011;17683;53.360;9.736;2023-04-25T10:11:50;9.70;;;1.95;;
30647;SDS011;17683;53.360;9.736;2023-04-25T10:14:17;17.17;;;2.40;;
30647;SDS011;17683;53.360;9.736;2023-04-25T10:16:44;13.00;;;2.25;;
30647;SDS011;17683;53.360;9.736;2023-04-25T10:19:10;10.55;;;3.58;;
30647;SDS011;17683;53.360;9.736;2023-04-25T10:21:50;18.10;;;4.00;;
30647;SDS011;17683;53.360;9.736;2023-04-25T10:24:22;10.23;;;2.42;;
30647;SDS011;17683;53.360;9.736;2023-04-25T10:26:49;7.40;;;1.88;;
30647;SDS011;17683;53.360;9.736;2023-04-25T10:29:23;8.32;;;2.60;;
30647;SDS011;17683;53.360;9.736;2023-04-25T10:31:50;10.75;;;2.35;;
30647;SDS011;17683;53.360;9.736;2023-04-25T10:34:16;8.27;;;2.33;;
30647;SDS011;17683;53.360;9.736;2023-04-25T10:36:44;8.05;;;1.90;;
30647;SDS011;17683;53.360;9.736;2023-04-25T10:39:22;7.63;;;2.40;;
30647;SDS011;17683;53.360;9.736;2023-04-25T10:44:21;7.57;;;1.85;;
30647;SDS011;17683;53.360;9.736;2023-04-25T10:46:47;6.70;;;1.60;;
30647;SDS011;17683;53.360;9.736;2023-04-25T11:08:00;8.00;;;2.13;;
30647;SDS011;17683;53.360;9.736;2023-04-25T11:10:28;13.48;;;2.63;;
30647;SDS011;17683;53.360;9.736;2023-04-25T11:12:56;10.50;;;2.03;;
30647;SDS011;17683;53.360;9.736;2023-04-25T11:15:22;11.57;;;2.70;;
30647;SDS011;17683;53.360;9.736;2023-04-25T11:17:50;4.78;;;1.70;;
30647;SDS011;17683;53.360;9.736;2023-04-25T11:20:17;9.32;;;1.95;;
30647;SDS011;17683;53.360;9.736;2023-04-25T11:22:44;7.57;;;1.90;;
30647;SDS011;17683;53.360;9.736;2023-04-25T11:25:11;7.70;;;1.95;;
30647;SDS011;17683;53.360;9.736;2023-04-25T11:27:38;8.05;;;1.55;;
30647;SDS011;17683;53.360;9.736;2023-04-25T11:30:22;6.57;;;1.77;;
30647;SDS011;17683;53.360;9.736;2023-04-25T11:32:49;5.20;;;1.60;;
30647;SDS011;17683;53.360;9.736;2023-04-25T11:35:17;6.18;;;2.05;;
30647;SDS011;17683;53.360;9.736;2023-04-25T11:37:43;12.45;;;1.67;;
30647;SDS011;17683;53.360;9.736;2023-04-25T11:40:10;7.40;;;1.83;;
30647;SDS011;17683;53.360;9.736;2023-04-25T11:42:46;8.82;;;2.45;;
30647;SDS011;17683;53.360;9.736;2023-04-25T11:45:12;6.18;;;1.95;;
30647;SDS011;17683;53.360;9.736;2023-04-25T11:47:39;7.05;;;1.65;;
30647;SDS011;17683;53.360;9.736;2023-04-25T11:50:06;5.00;;;1.48;;
30647;SDS011;17683;53.360;9.736;2023-04-25T11:52:42;6.72;;;1.73;;
30647;SDS011;17683;53.360;9.736;2023-04-25T11:55:13;6.70;;;1.20;;
30647;SDS011;17683;53.360;9.736;2023-04-25T11:57:41;6.28;;;1.80;;
30647;SDS011;17683;53.360;9.736;2023-04-25T12:00:09;8.25;;;1.60;;
30647;SDS011;17683;53.360;9.736;2023-04-25T12:02:41;9.40;;;1.83;;
30647;SDS011;17683;53.360;9.736;2023-04-25T12:05:08;14.98;;;2.38;;
30647;SDS011;17683;53.360;9.736;2023-04-25T12:07:35;7.68;;;2.00;;
30647;SDS011;17683;53.360;9.736;2023-04-25T12:10:06;11.30;;;2.63;;
30647;SDS011;17683;53.360;9.736;2023-04-25T12:12:33;7.68;;;1.63;;
30647;SDS011;17683;53.360;9.736;2023-04-25T12:15:09;11.07;;;1.98;;
30647;SDS011;17683;53.360;9.736;2023-04-25T12:17:38;9.77;;;2.20;;
30647;SDS011;17683;53.360;9.736;2023-04-25T12:20:10;15.48;;;2.05;;
30647;SDS011;17683;53.360;9.736;2023-04-25T12:22:40;6.25;;;1.30;;
30647;SDS011;17683;53.360;9.736;2023-04-25T12:25:10;13.40;;;2.10;;
30647;SDS011;17683;53.360;9.736;2023-04-25T12:27:38;10.00;;;1.92;;
30647;SDS011;17683;53.360;9.736;2023-04-25T12:30:07;5.75;;;1.90;;
30647;SDS011;17683;53.360;9.736;2023-04-25T12:32:33;8.18;;;1.17;;
30647;SDS011;17683;53.360;9.736;2023-04-25T12:34:59;4.90;;;1.15;;
30647;SDS011;17683;53.360;9.736;2023-04-25T12:37:25;5.70;;;1.40;;
30647;SDS011;17683;53.360;9.736;2023-04-25T12:39:51;7.03;;;1.27;;
30647;SDS011;17683;53.360;9.736;2023-04-25T12:42:16;6.10;;;1.08;;
30647;SDS011;17683;53.360;9.736;2023-04-25T12:44:42;7.03;;;1.60;;
30647;SDS011;17683;53.360;9.736;2023-04-25T12:47:08;4.25;;;1.75;;
30647;SDS011;17683;53.360;9.736;2023-04-25T12:49:34;2.30;;;0.90;;
30647;SDS011;17683;53.360;9.736;2023-04-25T12:51:59;7.78;;;1.67;;
30647;SDS011;17683;53.360;9.736;2023-04-25T12:54:25;3.78;;;1.25;;
30647;SDS011;17683;53.360;9.736;2023-04-25T12:56:51;5.53;;;1.25;;
30647;SDS011;17683;53.360;9.736;2023-04-25T12:59:17;3.22;;;1.30;;
30647;SDS011;17683;53.360;9.736;2023-04-25T13:01:44;9.57;;;1.80;;
30647;SDS011;17683;53.360;9.736;2023-04-25T13:04:10;6.45;;;1.58;;
30647;SDS011;17683;53.360;9.736;2023-04-25T13:06:36;7.55;;;1.63;;
30647;SDS011;17683;53.360;9.736;2023-04-25T13:09:02;5.93;;;1.35;;
30647;SDS011;17683;53.360;9.736;2023-04-25T13:11:28;10.00;;;1.88;;
30647;SDS011;17683;53.360;9.736;2023-04-25T13:13:55;6.60;;;1.65;;
30647;SDS011;17683;53.360;9.736;2023-04-25T13:16:21;10.20;;;1.83;;
30647;SDS011;17683;53.360;9.736;2023-04-25T13:18:47;4.78;;;1.30;;
30647;SDS011;17683;53.360;9.736;2023-04-25T13:21:13;5.85;;;1.92;;
30647;SDS011;17683;53.360;9.736;2023-04-25T13:23:40;7.55;;;1.67;;
30647;SDS011;17683;53.360;9.736;2023-04-25T13:26:07;7.30;;;1.98;;
30647;SDS011;17683;53.360;9.736;2023-04-25T13:28:33;8.27;;;2.25;;
30647;SDS011;17683;53.360;9.736;2023-04-25T13:30:59;10.15;;;2.53;;
30647;SDS011;17683;53.360;9.736;2023-04-25T13:33:25;8.82;;;2.53;;
30647;SDS011;17683;53.360;9.736;2023-04-25T13:35:51;6.78;;;1.67;;
30647;SDS011;17683;53.360;9.736;2023-04-25T13:38:22;10.05;;;1.80;;
30647;SDS011;17683;53.360;9.736;2023-04-25T13:40:50;8.88;;;1.80;;
30647;SDS011;17683;53.360;9.736;2023-04-25T13:43:18;15.05;;;2.22;;
30647;SDS011;17683;53.360;9.736;2023-04-25T13:45:45;8.10;;;2.47;;
30647;SDS011;17683;53.360;9.736;2023-04-25T13:48:11;14.25;;;2.35;;
30647;SDS011;17683;53.360;9.736;2023-04-25T13:50:37;5.55;;;1.45;;
30647;SDS011;17683;53.360;9.736;2023-04-25T13:53:03;6.07;;;1.40;;
30647;SDS011;17683;53.360;9.736;2023-04-25T13:55:28;3.92;;;1.60;;
30647;SDS011;17683;53.360;9.736;2023-04-25T13:57:55;11.55;;;1.73;;
30647;SDS011;17683;53.360;9.736;2023-04-25T14:00:20;6.50;;;1.50;;
30647;SDS011;17683;53.360;9.736;2023-04-25T14:02:46;9.32;;;1.50;;
30647;SDS011;17683;53.360;9.736;2023-04-25T14:05:12;5.72;;;1.65;;
30647;SDS011;17683;53.360;9.736;2023-04-25T14:07:38;4.22;;;1.50;;
30647;SDS011;17683;53.360;9.736;2023-04-25T14:10:04;5.68;;;1.50;;
30647;SDS011;17683;53.360;9.736;2023-04-25T14:12:30;5.28;;;1.45;;
30647;SDS011;17683;53.360;9.736;2023-04-25T14:14:57;5.43;;;2.25;;
30647;SDS011;17683;53.360;9.736;2023-04-25T14:17:23;4.95;;;1.52;;
30647;SDS011;17683;53.360;9.736;2023-04-25T14:19:49;5.63;;;1.40;;
30647;SDS011;17683;53.360;9.736;2023-04-25T14:22:15;6.88;;;1.40;;
30647;SDS011;17683;53.360;9.736;2023-04-25T14:24:41;5.78;;;1.42;;
30647;SDS011;17683;53.360;9.736;2023-04-25T14:27:06;5.05;;;1.58;;
30647;SDS011;17683;53.360;9.736;2023-04-25T14:29:32;8.13;;;1.70;;
30647;SDS011;17683;53.360;9.736;2023-04-25T14:31:58;5.15;;;1.38;;
30647;SDS011;17683;53.360;9.736;2023-04-25T14:34:27;6.00;;;1.58;;
30647;SDS011;17683;53.360;9.736;2023-04-25T14:36:53;7.45;;;1.60;;
30647;SDS011;17683;53.360;9.736;2023-04-25T14:39:18;8.57;;;1.95;;
30647;SDS011;17683;53.360;9.736;2023-04-25T14:41:44;12.20;;;2.17;;
30647;SDS011;17683;53.360;9.736;2023-04-25T14:44:10;5.25;;;1.42;;
30647;SDS011;17683;53.360;9.736;2023-04-25T14:46:36;7.10;;;1.80;;
30647;SDS011;17683;53.360;9.736;2023-04-25T14:49:02;4.82;;;1.42;;
30647;SDS011;17683;53.360;9.736;2023-04-25T14:51:28;4.28;;;1.05;;
30647;SDS011;17683;53.360;9.736;2023-04-25T14:53:54;5.20;;;1.42;;
30647;SDS011;17683;53.360;9.736;2023-04-25T14:56:20;8.57;;;1.65;;
30647;SDS011;17683;53.360;9.736;2023-04-25T14:58:46;4.78;;;2.15;;